sensor_id;sensor_type;location;lat;lon;timestamp;pressure;altitude;pressure_sealevel;temperature;humidity
6216;BME280;3141;49.234;9.326;2023-04-08T00:00:07;99953.59;;;12.33;71.45
6216;BME280;3141;49.234;9.326;2023-04-08T00:00:49;99944.97;;;12.31;71.60
6216;BME280;3141;49.234;9.326;2023-04-08T00:01:32;99960.06;;;12.30;71.53
6216;BME280;3141;49.234;9.326;2023-04-08T00:02:14;99959.06;;;12.31;71.06
6216;BME280;3141;49.234;9.326;2023-04-08T00:02:56;99954.44;;;12.33;70.98
6216;BME280;3141;49.234;9.326;2023-04-08T00:03:39;99950.44;;;12.29;71.61
6216;BME280;3141;49.234;9.326;2023-04-08T00:04:21;99946.97;;;12.29;71.38
6216;BME280;3141;49.234;9.326;2023-04-08T00:05:05;99952.59;;;12.26;71.59
6216;BME280;3141;49.234;9.326;2023-04-08T00:05:47;99956.53;;;12.22;71.45
6216;BME280;3141;49.234;9.326;2023-04-08T00:06:30;99952.91;;;12.23;71.44
6216;BME280;3141;49.234;9.326;2023-04-08T00:07:12;99954.88;;;12.21;71.28
6216;BME280;3141;49.234;9.326;2023-04-08T00:07:55;99957.88;;;12.26;71.33
6216;BME280;3141;49.234;9.326;2023-04-08T00:08:37;99957.88;;;12.26;71.61
6216;BME280;3141;49.234;9.326;2023-04-08T00:09:19;99948.97;;;12.27;71.07
6216;BME280;3141;49.234;9.326;2023-04-08T00:10:02;99957.84;;;12.18;71.40
6216;BME280;3141;49.234;9.326;2023-04-08T00:10:44;99955.53;;;12.15;71.83
6216;BME280;3141;49.234;9.326;2023-04-08T00:11:27;99951.41;;;12.20;72.11
6216;BME280;3141;49.234;9.326;2023-04-08T00:12:09;99952.22;;;12.21;71.76
6216;BME280;3141;49.234;9.326;2023-04-08T00:12:51;99955.81;;;12.12;72.12
6216;BME280;3141;49.234;9.326;2023-04-08T00:13:34;99947.53;;;12.07;72.34
6216;BME280;3141;49.234;9.326;2023-04-08T00:14:16;99959.06;;;11.98;72.56
6216;BME280;3141;49.234;9.326;2023-04-08T00:14:58;99951.75;;;11.92;73.19
6216;BME280;3141;49.234;9.326;2023-04-08T00:15:41;99950.00;;;12.00;72.63
6216;BME280;3141;49.234;9.326;2023-04-08T00:16:23;99952.00;;;12.06;72.75
6216;BME280;3141;49.234;9.326;2023-04-08T00:17:06;99955.13;;;12.02;72.67
6216;BME280;3141;49.234;9.326;2023-04-08T00:17:48;99950.75;;;11.93;73.12
6216;BME280;3141;49.234;9.326;2023-04-08T00:18:30;99946.22;;;12.03;72.39
6216;BME280;3141;49.234;9.326;2023-04-08T00:19:13;99954.28;;;12.01;72.38
6216;BME280;3141;49.234;9.326;2023-04-08T00:19:55;99948.84;;;12.03;72.33
6216;BME280;3141;49.234;9.326;2023-04-08T00:20:37;99949.00;;;12.01;72.29
6216;BME280;3141;49.234;9.326;2023-04-08T00:21:20;99951.19;;;12.06;72.26
6216;BME280;3141;49.234;9.326;2023-04-08T00:22:03;99946.91;;;12.13;71.80
6216;BME280;3141;49.234;9.326;2023-04-08T00:22:45;99960.84;;;12.15;71.75
6216;BME280;3141;49.234;9.326;2023-04-08T00:23:27;99951.22;;;12.14;71.76
6216;BME280;3141;49.234;9.326;2023-04-08T00:24:10;99951.56;;;12.19;71.75
6216;BME280;3141;49.234;9.326;2023-04-08T00:24:52;99952.22;;;12.13;72.10
6216;BME280;3141;49.234;9.326;2023-04-08T00:25:34;99953.19;;;12.12;72.11
6216;BME280;3141;49.234;9.326;2023-04-08T00:26:17;99958.19;;;12.15;71.88
6216;BME280;3141;49.234;9.326;2023-04-08T00:26:59;99956.84;;;12.19;71.90
6216;BME280;3141;49.234;9.326;2023-04-08T00:27:41;99955.66;;;12.13;71.99
6216;BME280;3141;49.234;9.326;2023-04-08T00:28:24;99947.53;;;12.07;72.13
6216;BME280;3141;49.234;9.326;2023-04-08T00:29:06;99953.50;;;12.09;72.03
6216;BME280;3141;49.234;9.326;2023-04-08T00:29:49;99952.00;;;12.06;72.26
6216;BME280;3141;49.234;9.326;2023-04-08T00:30:31;99952.47;;;12.02;72.37
6216;BME280;3141;49.234;9.326;2023-04-08T00:31:13;99953.81;;;12.06;72.25
6216;BME280;3141;49.234;9.326;2023-04-08T00:31:56;99958.13;;;12.07;72.32
6216;BME280;3141;49.234;9.326;2023-04-08T00:32:38;99947.19;;;12.02;72.63
6216;BME280;3141;49.234;9.326;2023-04-08T00:33:21;99957.41;;;11.97;72.64
6216;BME280;3141;49.234;9.326;2023-04-08T00:34:05;99957.41;;;11.97;72.81
6216;BME280;3141;49.234;9.326;2023-04-08T00:34:48;99951.75;;;11.92;73.07
6216;BME280;3141;49.234;9.326;2023-04-08T00:35:30;99959.56;;;11.93;73.12
6216;BME280;3141;49.234;9.326;2023-04-08T00:36:12;99955.72;;;11.88;73.31
6216;BME280;3141;49.234;9.326;2023-04-08T00:36:55;99957.31;;;11.81;74.02
6216;BME280;3141;49.234;9.326;2023-04-08T00:37:37;99960.81;;;11.81;73.89
6216;BME280;3141;49.234;9.326;2023-04-08T00:38:20;99949.38;;;11.81;74.18
6216;BME280;3141;49.234;9.326;2023-04-08T00:39:02;99958.16;;;11.81;74.11
6216;BME280;3141;49.234;9.326;2023-04-08T00:39:46;99954.38;;;11.84;74.16
6216;BME280;3141;49.234;9.326;2023-04-08T00:40:28;99962.31;;;11.84;74.01
6216;BME280;3141;49.234;9.326;2023-04-08T00:41:11;99954.06;;;11.87;74.29
6216;BME280;3141;49.234;9.326;2023-04-08T00:41:53;99949.72;;;11.86;73.96
6216;BME280;3141;49.234;9.326;2023-04-08T00:42:37;99950.91;;;11.83;74.29
6216;BME280;3141;49.234;9.326;2023-04-08T00:43:20;99956.34;;;11.82;74.36
6216;BME280;3141;49.234;9.326;2023-04-08T00:44:02;99954.84;;;11.79;74.29
6216;BME280;3141;49.234;9.326;2023-04-08T00:44:44;99955.66;;;11.80;74.82
6216;BME280;3141;49.234;9.326;2023-04-08T00:45:27;99952.66;;;11.75;74.98
6216;BME280;3141;49.234;9.326;2023-04-08T00:46:09;99953.00;;;11.72;75.04
6216;BME280;3141;49.234;9.326;2023-04-08T00:46:52;99950.97;;;11.74;74.44
6216;BME280;3141;49.234;9.326;2023-04-08T00:47:35;99949.00;;;11.76;74.81
6216;BME280;3141;49.234;9.326;2023-04-08T00:48:17;99959.00;;;11.82;74.21
6216;BME280;3141;49.234;9.326;2023-04-08T00:48:59;99966.47;;;11.86;74.46
6216;BME280;3141;49.234;9.326;2023-04-08T00:49:43;99965.94;;;11.83;74.05
6216;BME280;3141;49.234;9.326;2023-04-08T00:50:25;99963.88;;;11.69;74.63
6216;BME280;3141;49.234;9.326;2023-04-08T00:51:08;99963.47;;;11.63;74.92
6216;BME280;3141;49.234;9.326;2023-04-08T00:51:50;99965.03;;;11.66;75.04
6216;BME280;3141;49.234;9.326;2023-04-08T00:52:33;99958.88;;;11.66;74.76
6216;BME280;3141;49.234;9.326;2023-04-08T00:53:18;99961.97;;;11.61;75.64
6216;BME280;3141;49.234;9.326;2023-04-08T00:54:01;99961.75;;;11.54;75.27
6216;BME280;3141;49.234;9.326;2023-04-08T00:54:45;99961.97;;;11.61;75.23
6216;BME280;3141;49.234;9.326;2023-04-08T00:55:28;99963.44;;;11.55;75.27
6216;BME280;3141;49.234;9.326;2023-04-08T00:56:10;99960.16;;;11.61;75.16
6216;BME280;3141;49.234;9.326;2023-04-08T00:56:52;99965.44;;;11.61;75.37
6216;BME280;3141;49.234;9.326;2023-04-08T00:57:35;99967.03;;;11.54;75.11
6216;BME280;3141;49.234;9.326;2023-04-08T00:58:17;99959.78;;;11.56;74.83
6216;BME280;3141;49.234;9.326;2023-04-08T00:59:00;99962.66;;;11.63;74.51
6216;BME280;3141;49.234;9.326;2023-04-08T00:59:43;99961.09;;;11.52;74.86
6216;BME280;3141;49.234;9.326;2023-04-08T01:00:28;99961.81;;;11.62;74.66
6216;BME280;3141;49.234;9.326;2023-04-08T01:01:18;99964.47;;;11.62;74.86
6216;BME280;3141;49.234;9.326;2023-04-08T01:03:23;99964.34;;;11.46;75.29
6216;BME280;3141;49.234;9.326;2023-04-08T01:05:16;99959.53;;;11.42;75.71
6216;BME280;3141;49.234;9.326;2023-04-08T01:07:00;99964.97;;;11.40;75.39
6216;BME280;3141;49.234;9.326;2023-04-08T01:07:49;99958.84;;;11.40;75.62
6216;BME280;3141;49.234;9.326;2023-04-08T01:08:34;99956.88;;;11.42;75.84
6216;BME280;3141;49.234;9.326;2023-04-08T01:09:22;99964.97;;;11.40;75.83
6216;BME280;3141;49.234;9.326;2023-04-08T01:10:12;99963.31;;;11.39;75.76
6216;BME280;3141;49.234;9.326;2023-04-08T01:10:58;99953.63;;;11.30;75.88
6216;BME280;3141;49.234;9.326;2023-04-08T01:11:43;99957.88;;;11.23;75.95
6216;BME280;3141;49.234;9.326;2023-04-08T01:12:28;99961.50;;;11.22;76.39
6216;BME280;3141;49.234;9.326;2023-04-08T01:13:13;99960.97;;;11.19;76.45
6216;BME280;3141;49.234;9.326;2023-04-08T01:14:00;99961.31;;;11.16;76.97
6216;BME280;3141;49.234;9.326;2023-04-08T01:14:47;99967.81;;;11.21;76.79
6216;BME280;3141;49.234;9.326;2023-04-08T01:15:35;99963.69;;;11.27;76.11
6216;BME280;3141;49.234;9.326;2023-04-08T01:16:18;99960.38;;;11.25;76.36
6216;BME280;3141;49.234;9.326;2023-04-08T01:17:02;99965.16;;;11.21;76.24
6216;BME280;3141;49.234;9.326;2023-04-08T01:17:46;99960.78;;;11.12;76.58
6216;BME280;3141;49.234;9.326;2023-04-08T01:18:29;99962.41;;;11.13;76.77
6216;BME280;3141;49.234;9.326;2023-04-08T01:19:33;99956.59;;;11.10;76.82
6216;BME280;3141;49.234;9.326;2023-04-08T01:20:17;99961.44;;;11.14;76.68
6216;BME280;3141;49.234;9.326;2023-04-08T01:21:00;99961.59;;;11.13;76.68
6216;BME280;3141;49.234;9.326;2023-04-08T01:21:44;99960.47;;;11.15;76.75
6216;BME280;3141;49.234;9.326;2023-04-08T01:22:50;99963.25;;;11.14;77.07
6216;BME280;3141;49.234;9.326;2023-04-08T01:24:42;99959.88;;;11.21;76.85
6216;BME280;3141;49.234;9.326;2023-04-08T01:25:37;99964.84;;;11.24;76.63
6216;BME280;3141;49.234;9.326;2023-04-08T01:26:22;99966.84;;;11.30;75.89
6216;BME280;3141;49.234;9.326;2023-04-08T01:27:06;99970.03;;;11.34;75.96
6216;BME280;3141;49.234;9.326;2023-04-08T01:27:49;99961.81;;;11.19;76.35
6216;BME280;3141;49.234;9.326;2023-04-08T01:28:32;99962.34;;;11.23;76.28
6216;BME280;3141;49.234;9.326;2023-04-08T01:29:17;99965.22;;;11.29;76.37
6216;BME280;3141;49.234;9.326;2023-04-08T01:30:02;99966.84;;;11.30;76.41
6216;BME280;3141;49.234;9.326;2023-04-08T01:30:46;99958.63;;;11.33;76.04
6216;BME280;3141;49.234;9.326;2023-04-08T01:31:30;99962.09;;;11.34;75.93
6216;BME280;3141;49.234;9.326;2023-04-08T01:32:13;99963.63;;;11.36;76.01
6216;BME280;3141;49.234;9.326;2023-04-08T01:32:56;99960.28;;;11.34;75.92
6216;BME280;3141;49.234;9.326;2023-04-08T01:33:40;99966.41;;;11.35;75.65
6216;BME280;3141;49.234;9.326;2023-04-08T01:34:24;99963.09;;;11.33;75.92
6216;BME280;3141;49.234;9.326;2023-04-08T01:35:07;99964.38;;;11.29;76.12
6216;BME280;3141;49.234;9.326;2023-04-08T01:35:50;99961.88;;;11.27;76.23
6216;BME280;3141;49.234;9.326;2023-04-08T01:36:34;99964.63;;;11.35;75.56
6216;BME280;3141;49.234;9.326;2023-04-08T01:37:19;99964.22;;;11.30;76.28
6216;BME280;3141;49.234;9.326;2023-04-08T01:38:02;99960.91;;;11.28;76.11
6216;BME280;3141;49.234;9.326;2023-04-08T01:38:46;99961.72;;;11.29;76.27
6216;BME280;3141;49.234;9.326;2023-04-08T01:39:29;99962.88;;;11.26;76.22
6216;BME280;3141;49.234;9.326;2023-04-08T01:40:12;99954.78;;;11.28;76.17
6216;BME280;3141;49.234;9.326;2023-04-08T01:40:55;99956.97;;;11.15;76.65
6216;BME280;3141;49.234;9.326;2023-04-08T01:41:38;99957.66;;;11.17;76.86
6216;BME280;3141;49.234;9.326;2023-04-08T01:42:23;99961.81;;;11.19;76.90
6216;BME280;3141;49.234;9.326;2023-04-08T01:43:07;99960.50;;;11.23;76.24
6216;BME280;3141;49.234;9.326;2023-04-08T01:43:51;99964.16;;;11.22;76.59
6216;BME280;3141;49.234;9.326;2023-04-08T01:44:35;99957.22;;;11.21;76.48
6216;BME280;3141;49.234;9.326;2023-04-08T01:45:18;99967.56;;;11.15;76.46
6216;BME280;3141;49.234;9.326;2023-04-08T01:46:01;99961.88;;;11.10;76.86
6216;BME280;3141;49.234;9.326;2023-04-08T01:46:43;99960.47;;;11.15;76.77
6216;BME280;3141;49.234;9.326;2023-04-08T01:47:26;99961.31;;;11.16;76.69
6216;BME280;3141;49.234;9.326;2023-04-08T01:48:11;99959.88;;;11.21;76.38
6216;BME280;3141;49.234;9.326;2023-04-08T01:48:54;99965.97;;;11.22;76.29
6216;BME280;3141;49.234;9.326;2023-04-08T01:49:38;99966.81;;;11.22;76.33
6216;BME280;3141;49.234;9.326;2023-04-08T01:50:21;99954.03;;;11.18;76.37
6216;BME280;3141;49.234;9.326;2023-04-08T01:51:04;99957.22;;;11.21;76.42
6216;BME280;3141;49.234;9.326;2023-04-08T01:51:48;99962.13;;;11.16;76.62
6216;BME280;3141;49.234;9.326;2023-04-08T01:52:31;99961.97;;;11.18;76.48
6216;BME280;3141;49.234;9.326;2023-04-08T01:53:16;99960.09;;;11.10;77.04
6216;BME280;3141;49.234;9.326;2023-04-08T01:53:58;99959.34;;;11.18;76.78
6216;BME280;3141;49.234;9.326;2023-04-08T01:54:41;99963.72;;;11.09;77.00
6216;BME280;3141;49.234;9.326;2023-04-08T01:55:23;99956.31;;;11.13;76.91
6216;BME280;3141;49.234;9.326;2023-04-08T01:56:11;99965.06;;;11.13;76.70
6216;BME280;3141;49.234;9.326;2023-04-08T01:56:55;99959.09;;;11.11;77.02
6216;BME280;3141;49.234;9.326;2023-04-08T01:57:40;99961.97;;;11.18;76.26
6216;BME280;3141;49.234;9.326;2023-04-08T01:58:27;99962.34;;;11.05;76.92
6216;BME280;3141;49.234;9.326;2023-04-08T01:59:14;99957.44;;;11.10;76.62
6216;BME280;3141;49.234;9.326;2023-04-08T02:00:05;99955.53;;;11.03;77.12
6216;BME280;3141;49.234;9.326;2023-04-08T02:00:49;99953.06;;;11.01;77.13
6216;BME280;3141;49.234;9.326;2023-04-08T02:01:34;99944.44;;;10.99;77.03
6216;BME280;3141;49.234;9.326;2023-04-08T02:02:19;99954.72;;;11.02;76.94
6216;BME280;3141;49.234;9.326;2023-04-08T02:03:03;99958.88;;;11.05;76.92
6216;BME280;3141;49.234;9.326;2023-04-08T02:03:47;99954.94;;;11.09;76.64
6216;BME280;3141;49.234;9.326;2023-04-08T02:04:34;99958.44;;;11.09;76.70
6216;BME280;3141;49.234;9.326;2023-04-08T02:05:16;99959.34;;;11.18;76.24
6216;BME280;3141;49.234;9.326;2023-04-08T02:05:58;99951.84;;;11.13;76.49
6216;BME280;3141;49.234;9.326;2023-04-08T02:06:41;99957.22;;;11.21;76.29
6216;BME280;3141;49.234;9.326;2023-04-08T02:07:23;99959.34;;;11.18;76.27
6216;BME280;3141;49.234;9.326;2023-04-08T02:08:06;99960.09;;;11.10;76.33
6216;BME280;3141;49.234;9.326;2023-04-08T02:08:48;99955.78;;;11.09;76.73
6216;BME280;3141;49.234;9.326;2023-04-08T02:09:30;99953.94;;;11.10;76.43
6216;BME280;3141;49.234;9.326;2023-04-08T02:10:13;99962.94;;;10.99;77.07
6216;BME280;3141;49.234;9.326;2023-04-08T02:10:55;99964.09;;;10.97;77.79
6216;BME280;3141;49.234;9.326;2023-04-08T02:11:38;99960.09;;;10.93;77.24
6216;BME280;3141;49.234;9.326;2023-04-08T02:12:20;99960.63;;;10.96;77.59
6216;BME280;3141;49.234;9.326;2023-04-08T02:13:03;99964.31;;;11.03;77.16
6216;BME280;3141;49.234;9.326;2023-04-08T02:13:46;99961.69;;;11.03;77.25
6216;BME280;3141;49.234;9.326;2023-04-08T02:14:28;99959.41;;;11.08;77.07
6216;BME280;3141;49.234;9.326;2023-04-08T02:15:11;99956.91;;;11.07;77.40
6216;BME280;3141;49.234;9.326;2023-04-08T02:16:17;99963.63;;;11.01;77.34
6216;BME280;3141;49.234;9.326;2023-04-08T02:17:07;99958.97;;;10.95;77.47
6216;BME280;3141;49.234;9.326;2023-04-08T02:18:08;99956.38;;;11.03;77.04
6216;BME280;3141;49.234;9.326;2023-04-08T02:18:55;99964.53;;;11.10;76.47
6216;BME280;3141;49.234;9.326;2023-04-08T02:20:42;99963.94;;;10.98;76.74
6216;BME280;3141;49.234;9.326;2023-04-08T02:21:33;99962.56;;;10.94;77.82
6216;BME280;3141;49.234;9.326;2023-04-08T02:23:15;99966.97;;;11.03;77.42
6216;BME280;3141;49.234;9.326;2023-04-08T02:24:03;99962.81;;;11.01;77.16
6216;BME280;3141;49.234;9.326;2023-04-08T02:24:47;99965.84;;;10.88;77.34
6216;BME280;3141;49.234;9.326;2023-04-08T02:25:33;99959.19;;;10.84;78.28
6216;BME280;3141;49.234;9.326;2023-04-08T02:26:16;99960.03;;;10.85;78.64
6216;BME280;3141;49.234;9.326;2023-04-08T02:27:01;99965.78;;;10.80;78.35
6216;BME280;3141;49.234;9.326;2023-04-08T02:27:44;99964.97;;;10.70;78.69
6216;BME280;3141;49.234;9.326;2023-04-08T02:28:30;99968.31;;;10.72;79.10
6216;BME280;3141;49.234;9.326;2023-04-08T02:29:15;99967.25;;;10.65;79.10
6216;BME280;3141;49.234;9.326;2023-04-08T02:29:59;99964.81;;;10.54;79.27
6216;BME280;3141;49.234;9.326;2023-04-08T02:30:49;99965.50;;;10.74;78.77
6216;BME280;3141;49.234;9.326;2023-04-08T02:31:32;99963.69;;;10.57;79.22
6216;BME280;3141;49.234;9.326;2023-04-08T02:32:16;99953.19;;;10.47;79.45
6216;BME280;3141;49.234;9.326;2023-04-08T02:32:59;99968.00;;;10.58;79.56
6216;BME280;3141;49.234;9.326;2023-04-08T02:33:43;99967.78;;;10.69;79.15
6216;BME280;3141;49.234;9.326;2023-04-08T02:34:25;99966.84;;;10.60;78.91
6216;BME280;3141;49.234;9.326;2023-04-08T02:35:10;99961.72;;;10.59;79.33
6216;BME280;3141;49.234;9.326;2023-04-08T02:35:53;99961.19;;;10.55;79.18
6216;BME280;3141;49.234;9.326;2023-04-08T02:36:37;99965.59;;;10.64;78.92
6216;BME280;3141;49.234;9.326;2023-04-08T02:37:24;99966.50;;;10.73;78.47
6216;BME280;3141;49.234;9.326;2023-04-08T02:38:06;99972.47;;;10.75;78.32
6216;BME280;3141;49.234;9.326;2023-04-08T02:38:49;99970.00;;;10.73;78.14
6216;BME280;3141;49.234;9.326;2023-04-08T02:39:32;99962.84;;;10.56;78.82
6216;BME280;3141;49.234;9.326;2023-04-08T02:40:28;99974.94;;;10.59;79.03
6216;BME280;3141;49.234;9.326;2023-04-08T02:41:10;99965.22;;;10.59;78.94
6216;BME280;3141;49.234;9.326;2023-04-08T02:41:52;99963.28;;;10.52;79.37
6216;BME280;3141;49.234;9.326;2023-04-08T02:42:35;99969.13;;;10.55;78.90
6216;BME280;3141;49.234;9.326;2023-04-08T02:43:17;99965.47;;;10.56;78.83
6216;BME280;3141;49.234;9.326;2023-04-08T02:43:59;99962.72;;;10.58;79.33
6216;BME280;3141;49.234;9.326;2023-04-08T02:44:42;99966.25;;;10.48;79.23
6216;BME280;3141;49.234;9.326;2023-04-08T02:45:32;99967.00;;;10.59;78.90
6216;BME280;3141;49.234;9.326;2023-04-08T02:46:16;99970.88;;;10.64;78.46
6216;BME280;3141;49.234;9.326;2023-04-08T02:46:59;99966.47;;;10.55;78.87
6216;BME280;3141;49.234;9.326;2023-04-08T02:47:41;99963.84;;;10.55;79.07
6216;BME280;3141;49.234;9.326;2023-04-08T02:48:23;99966.25;;;10.48;79.39
6216;BME280;3141;49.234;9.326;2023-04-08T02:49:05;99969.19;;;10.63;78.44
6216;BME280;3141;49.234;9.326;2023-04-08T02:49:48;99961.19;;;10.55;78.44
6216;BME280;3141;49.234;9.326;2023-04-08T02:50:33;99966.78;;;10.52;79.23
6216;BME280;3141;49.234;9.326;2023-04-08T02:51:15;99963.69;;;10.57;78.61
6216;BME280;3141;49.234;9.326;2023-04-08T02:51:58;99962.84;;;10.56;78.89
6216;BME280;3141;49.234;9.326;2023-04-08T02:52:40;99970.38;;;10.51;78.98
6216;BME280;3141;49.234;9.326;2023-04-08T02:53:23;99959.81;;;10.51;79.13
6216;BME280;3141;49.234;9.326;2023-04-08T02:54:06;99973.41;;;10.56;78.52
6216;BME280;3141;49.234;9.326;2023-04-08T02:54:48;99965.78;;;10.53;78.53
6216;BME280;3141;49.234;9.326;2023-04-08T02:55:30;99967.50;;;10.44;78.49
6216;BME280;3141;49.234;9.326;2023-04-08T02:56:13;99965.00;;;10.43;78.87
6216;BME280;3141;49.234;9.326;2023-04-08T02:56:56;99958.75;;;10.44;78.63
6216;BME280;3141;49.234;9.326;2023-04-08T02:57:40;99955.44;;;10.42;78.98
6216;BME280;3141;49.234;9.326;2023-04-08T02:58:23;99961.53;;;10.42;78.83
6216;BME280;3141;49.234;9.326;2023-04-08T02:59:05;99965.41;;;10.48;78.55
6216;BME280;3141;49.234;9.326;2023-04-08T02:59:48;99963.09;;;10.35;78.89
6216;BME280;3141;49.234;9.326;2023-04-08T03:00:30;99960.72;;;10.42;79.09
6216;BME280;3141;49.234;9.326;2023-04-08T03:01:12;99961.84;;;10.39;78.49
6216;BME280;3141;49.234;9.326;2023-04-08T03:01:55;99967.28;;;10.38;78.68
6216;BME280;3141;49.234;9.326;2023-04-08T03:02:37;99963.25;;;10.34;79.18
6216;BME280;3141;49.234;9.326;2023-04-08T03:03:19;99966.50;;;10.28;79.32
6216;BME280;3141;49.234;9.326;2023-04-08T03:04:08;99972.16;;;10.33;79.15
6216;BME280;3141;49.234;9.326;2023-04-08T03:04:50;99966.28;;;10.39;79.05
6216;BME280;3141;49.234;9.326;2023-04-08T03:05:33;99964.88;;;10.44;78.52
6216;BME280;3141;49.234;9.326;2023-04-08T03:06:15;99968.19;;;10.46;78.26
6216;BME280;3141;49.234;9.326;2023-04-08T03:06:58;99970.31;;;10.43;78.16
6216;BME280;3141;49.234;9.326;2023-04-08T03:07:40;99972.09;;;10.42;78.37
6216;BME280;3141;49.234;9.326;2023-04-08T03:08:22;99971.84;;;10.45;78.51
6216;BME280;3141;49.234;9.326;2023-04-08T03:09:05;99972.78;;;10.44;78.29
6216;BME280;3141;49.234;9.326;2023-04-08T03:09:48;99969.19;;;10.45;78.32
6216;BME280;3141;49.234;9.326;2023-04-08T03:10:30;99974.72;;;10.52;78.16
6216;BME280;3141;49.234;9.326;2023-04-08T03:11:12;99966.78;;;10.52;77.86
6216;BME280;3141;49.234;9.326;2023-04-08T03:11:55;99968.13;;;10.56;78.06
6216;BME280;3141;49.234;9.326;2023-04-08T03:12:37;99969.63;;;10.41;78.10
6216;BME280;3141;49.234;9.326;2023-04-08T03:13:19;99973.97;;;10.32;79.03
6216;BME280;3141;49.234;9.326;2023-04-08T03:14:01;99971.78;;;10.28;79.52
6216;BME280;3141;49.234;9.326;2023-04-08T03:14:44;99970.09;;;10.27;79.25
6216;BME280;3141;49.234;9.326;2023-04-08T03:15:26;99965.47;;;10.38;78.97
6216;BME280;3141;49.234;9.326;2023-04-08T03:16:08;99977.16;;;10.36;79.40
6216;BME280;3141;49.234;9.326;2023-04-08T03:16:51;99976.13;;;10.46;78.44
6216;BME280;3141;49.234;9.326;2023-04-08T03:17:33;99975.97;;;10.48;78.32
6216;BME280;3141;49.234;9.326;2023-04-08T03:18:16;99974.03;;;10.50;77.95
6216;BME280;3141;49.234;9.326;2023-04-08T03:18:58;99977.75;;;10.57;77.58
6216;BME280;3141;49.234;9.326;2023-04-08T03:19:41;99978.13;;;10.62;77.30
6216;BME280;3141;49.234;9.326;2023-04-08T03:20:23;99976.06;;;10.56;77.44
6216;BME280;3141;49.234;9.326;2023-04-08T03:21:05;99982.03;;;10.58;77.79
6216;BME280;3141;49.234;9.326;2023-04-08T03:21:48;99974.25;;;10.57;77.60
6216;BME280;3141;49.234;9.326;2023-04-08T03:22:30;99976.66;;;10.50;78.02
6216;BME280;3141;49.234;9.326;2023-04-08T03:23:12;99973.34;;;10.48;77.79
6216;BME280;3141;49.234;9.326;2023-04-08T03:23:55;99969.47;;;10.42;78.63
6216;BME280;3141;49.234;9.326;2023-04-08T03:24:37;99972.06;;;10.52;77.67
6216;BME280;3141;49.234;9.326;2023-04-08T03:25:19;99974.09;;;10.58;77.62
6216;BME280;3141;49.234;9.326;2023-04-08T03:26:02;99972.16;;;10.60;77.34
6216;BME280;3141;49.234;9.326;2023-04-08T03:26:44;99971.19;;;10.61;77.28
6216;BME280;3141;49.234;9.326;2023-04-08T03:27:27;99983.72;;;10.59;76.98
6216;BME280;3141;49.234;9.326;2023-04-08T03:28:09;99974.03;;;10.50;77.66
6216;BME280;3141;49.234;9.326;2023-04-08T03:28:52;99975.09;;;10.57;77.64
6216;BME280;3141;49.234;9.326;2023-04-08T03:29:34;99974.47;;;10.63;77.14
6216;BME280;3141;49.234;9.326;2023-04-08T03:30:16;99976.16;;;10.64;76.92
6216;BME280;3141;49.234;9.326;2023-04-08T03:30:59;99970.88;;;10.64;77.17
6216;BME280;3141;49.234;9.326;2023-04-08T03:31:42;99979.78;;;10.63;76.78
6216;BME280;3141;49.234;9.326;2023-04-08T03:32:24;99975.31;;;10.64;76.76
6216;BME280;3141;49.234;9.326;2023-04-08T03:33:06;99977.00;;;10.65;76.87
6216;BME280;3141;49.234;9.326;2023-04-08T03:33:49;99975.56;;;10.70;76.46
6216;BME280;3141;49.234;9.326;2023-04-08T03:34:33;99984.19;;;10.72;76.45
6216;BME280;3141;49.234;9.326;2023-04-08T03:35:16;99973.28;;;10.58;76.91
6216;BME280;3141;49.234;9.326;2023-04-08T03:35:58;99983.09;;;10.65;76.89
6216;BME280;3141;49.234;9.326;2023-04-08T03:36:41;99979.88;;;10.71;76.53
6216;BME280;3141;49.234;9.326;2023-04-08T03:37:23;99983.34;;;10.72;76.62
6216;BME280;3141;49.234;9.326;2023-04-08T03:38:06;99985.00;;;10.73;76.67
6216;BME280;3141;49.234;9.326;2023-04-08T03:38:48;99985.75;;;10.65;76.82
6216;BME280;3141;49.234;9.326;2023-04-08T03:39:30;99985.38;;;10.60;77.17
6216;BME280;3141;49.234;9.326;2023-04-08T03:40:13;99987.03;;;10.61;77.49
6216;BME280;3141;49.234;9.326;2023-04-08T03:40:55;99984.25;;;10.63;77.57
6216;BME280;3141;49.234;9.326;2023-04-08T03:41:37;99985.06;;;10.63;77.07
6216;BME280;3141;49.234;9.326;2023-04-08T03:42:19;99985.75;;;10.65;77.16
6216;BME280;3141;49.234;9.326;2023-04-08T03:43:02;99986.97;;;10.71;76.59
6216;BME280;3141;49.234;9.326;2023-04-08T03:43:44;99985.97;;;10.72;76.46
6216;BME280;3141;49.234;9.326;2023-04-08T03:44:26;99983.75;;;10.77;76.40
6216;BME280;3141;49.234;9.326;2023-04-08T03:45:09;99983.78;;;10.67;76.65
6216;BME280;3141;49.234;9.326;2023-04-08T03:45:51;99983.03;;;10.57;77.49
6216;BME280;3141;49.234;9.326;2023-04-08T03:46:34;99984.97;;;10.55;77.45
6216;BME280;3141;49.234;9.326;2023-04-08T03:47:16;99982.03;;;10.58;77.24
6216;BME280;3141;49.234;9.326;2023-04-08T03:47:58;99982.34;;;10.55;78.05
6216;BME280;3141;49.234;9.326;2023-04-08T03:48:41;99974.31;;;10.47;78.21
6216;BME280;3141;49.234;9.326;2023-04-08T03:49:23;99985.47;;;10.41;78.24
6216;BME280;3141;49.234;9.326;2023-04-08T03:50:06;99983.81;;;10.40;78.73
6216;BME280;3141;49.234;9.326;2023-04-08T03:50:48;99974.91;;;10.41;78.34
6216;BME280;3141;49.234;9.326;2023-04-08T03:51:31;99978.22;;;10.43;78.42
6216;BME280;3141;49.234;9.326;2023-04-08T03:52:13;99979.31;;;10.50;78.10
6216;BME280;3141;49.234;9.326;2023-04-08T03:52:55;99981.09;;;10.49;78.36
6216;BME280;3141;49.234;9.326;2023-04-08T03:53:38;99969.63;;;10.41;78.22
6216;BME280;3141;49.234;9.326;2023-04-08T03:54:20;99981.09;;;10.49;78.44
6216;BME280;3141;49.234;9.326;2023-04-08T03:55:02;99978.69;;;10.56;78.32
6216;BME280;3141;49.234;9.326;2023-04-08T03:55:47;99974.94;;;10.59;78.07
6216;BME280;3141;49.234;9.326;2023-04-08T03:56:30;99976.31;;;10.63;77.77
6216;BME280;3141;49.234;9.326;2023-04-08T03:57:12;99978.19;;;10.53;77.98
6216;BME280;3141;49.234;9.326;2023-04-08T03:57:54;99985.66;;;10.57;77.75
6216;BME280;3141;49.234;9.326;2023-04-08T03:58:37;99980.97;;;10.51;78.20
6216;BME280;3141;49.234;9.326;2023-04-08T03:59:19;99978.03;;;10.54;77.89
6216;BME280;3141;49.234;9.326;2023-04-08T04:00:02;99982.03;;;10.58;77.72
6216;BME280;3141;49.234;9.326;2023-04-08T04:00:44;99979.38;;;10.58;77.78
6216;BME280;3141;49.234;9.326;2023-04-08T04:01:27;99977.34;;;10.52;77.79
6216;BME280;3141;49.234;9.326;2023-04-08T04:02:10;99975.66;;;10.51;77.84
6216;BME280;3141;49.234;9.326;2023-04-08T04:02:52;99977.88;;;10.56;77.72
6216;BME280;3141;49.234;9.326;2023-04-08T04:03:34;99978.69;;;10.56;78.03